Time;durP1;ratioP1;P1;durP2;ratioP2;P2;SDS_P1;SDS_P2;PMS_P1;PMS_P2;Temp;Humidity;BMP_temperature;BMP_pressure;BME280_temperature;BME280_humidity;BME280_pressure;Samples;Min_cycle;Max_cycle;Signal;HPM_P1;HPM_P2
2023/07/08 00:00:41;;;;;;;7.35;3.50;;;;;;;19.51;49.17;101387.81;5022398;28;20521;-56
2023/07/08 00:03:08;;;;;;;6.93;2.70;;;;;;;19.51;49.46;101397.66;5019757;28;20136;-53
2023/07/08 00:05:36;;;;;;;5.13;3.28;;;;;;;19.47;49.60;101394.38;5017026;28;21289;-57
2023/07/08 00:08:04;;;;;;;7.50;4.00;;;;;;;19.44;49.24;101402.63;5018848;28;20494;-53
2023/07/08 00:10:31;;;;;;;9.90;4.28;;;;;;;19.40;49.35;101395.88;5019587;28;20053;-53
2023/07/08 00:12:59;;;;;;;5.85;3.25;;;;;;;19.40;49.62;101398.53;5017540;28;20064;-55
2023/07/08 00:15:29;;;;;;;8.40;3.25;;;;;;;19.37;50.22;101407.66;5019457;28;20059;-56
2023/07/08 00:17:57;;;;;;;8.48;3.75;;;;;;;19.32;49.86;101399.19;5017572;28;20049;-53
2023/07/08 00:20:40;;;;;;;5.30;3.30;;;;;;;19.28;50.33;101405.75;5020059;28;20093;-56
2023/07/08 00:23:09;;;;;;;5.20;3.38;;;;;;;19.24;50.63;101401.66;5020543;28;20136;-57
2023/07/08 00:25:37;;;;;;;4.05;3.15;;;;;;;19.17;50.92;101401.28;5016757;28;20069;-54
2023/07/08 00:28:24;;;;;;;13.23;4.10;;;;;;;19.11;50.77;101393.81;5024288;28;20133;-54
2023/07/08 00:30:52;;;;;;;5.55;3.08;;;;;;;19.09;51.26;101397.56;5019305;28;20081;-53
2023/07/08 00:33:20;;;;;;;7.78;3.80;;;;;;;19.07;51.44;101404.88;5019882;28;20100;-55
2023/07/08 00:35:47;;;;;;;6.55;3.63;;;;;;;19.04;50.79;101400.63;5027470;28;20587;-57
2023/07/08 00:38:20;;;;;;;8.70;3.95;;;;;;;19.04;50.20;101397.94;5026105;28;20092;-55
2023/07/08 00:40:51;;;;;;;5.30;3.53;;;;;;;19.05;50.65;101404.13;5042226;28;20128;-56
2023/07/08 00:43:22;;;;;;;4.70;3.20;;;;;;;19.02;50.40;101399.91;5021186;28;20061;-56
2023/07/08 00:45:52;;;;;;;7.60;3.83;;;;;;;19.01;50.53;101395.56;5017600;28;20145;-56
2023/07/08 00:48:34;;;;;;;8.20;3.78;;;;;;;18.98;50.08;101407.31;5013749;28;20052;-58
2023/07/08 00:51:01;;;;;;;5.80;3.10;;;;;;;18.97;49.97;101400.28;5023413;28;20196;-55
2023/07/08 00:53:32;;;;;;;3.90;3.20;;;;;;;18.95;49.79;101402.22;5022728;28;20533;-55
2023/07/08 00:56:12;;;;;;;5.25;3.42;;;;;;;18.94;49.75;101405.03;5018110;28;20130;-53
2023/07/08 00:58:45;;;;;;;5.03;3.30;;;;;;;18.93;49.86;101398.00;5013634;28;20062;-55
2023/07/08 01:01:12;;;;;;;8.27;3.53;;;;;;;18.91;49.99;101394.59;5022614;28;20033;-51
2023/07/08 01:03:49;;;;;;;8.00;3.35;;;;;;;18.90;50.27;101393.75;5024509;28;20140;-51
2023/07/08 01:06:18;;;;;;;4.97;3.50;;;;;;;18.87;50.25;101396.69;5023950;28;20049;-56
2023/07/08 01:08:47;;;;;;;5.63;3.47;;;;;;;18.86;50.69;101404.78;5020718;28;20045;-56
2023/07/08 01:11:14;;;;;;;5.38;3.20;;;;;;;18.83;50.36;101399.72;5040999;28;20053;-51
2023/07/08 01:13:43;;;;;;;9.80;3.42;;;;;;;18.81;50.33;101398.97;5019910;28;20075;-55
2023/07/08 01:16:14;;;;;;;7.50;3.63;;;;;;;18.78;50.64;101394.75;5016255;28;20042;-55
2023/07/08 01:18:41;;;;;;;4.45;2.95;;;;;;;18.76;51.26;101390.50;5020575;28;20068;-55
2023/07/08 01:22:07;;;;;;;5.90;3.78;;;;;;;18.74;51.57;101387.13;5021700;28;20710;-55
2023/07/08 01:24:38;;;;;;;5.72;3.22;;;;;;;18.71;52.05;101389.06;4979140;28;20146;-52
2023/07/08 01:27:08;;;;;;;7.72;3.83;;;;;;;18.65;52.42;101386.88;4976804;28;20050;-54
2023/07/08 01:29:35;;;;;;;5.43;3.47;;;;;;;18.63;52.30;101386.13;5004312;28;20057;-54
2023/07/08 01:32:03;;;;;;;6.30;3.33;;;;;;;18.62;52.71;101386.25;5020374;28;20137;-53
2023/07/08 01:34:32;;;;;;;5.70;3.58;;;;;;;18.57;52.90;101378.63;5022470;28;20135;-50
2023/07/08 01:37:02;;;;;;;8.18;3.40;;;;;;;18.56;53.15;101378.78;5038680;28;20139;-53
2023/07/08 01:39:32;;;;;;;6.65;3.92;;;;;;;18.53;53.35;101373.69;5005992;28;20398;-53
2023/07/08 01:42:01;;;;;;;6.10;4.00;;;;;;;18.49;53.57;101378.41;5022716;28;20148;-53
2023/07/08 01:44:33;;;;;;;3.65;3.05;;;;;;;18.46;53.38;101370.63;5022343;28;20053;-53
2023/07/08 01:47:18;;;;;;;5.50;3.72;;;;;;;18.41;54.16;101372.81;5018006;28;20058;-57
2023/07/08 01:49:47;;;;;;;4.97;3.50;;;;;;;18.36;53.89;101373.19;5016444;28;20050;-54
2023/07/08 01:52:17;;;;;;;5.57;3.55;;;;;;;18.31;54.43;101374.53;5019233;28;20498;-54
2023/07/08 01:54:44;;;;;;;7.95;3.45;;;;;;;18.26;54.47;101369.56;5019604;28;20045;-54
2023/07/08 01:57:11;;;;;;;6.35;3.45;;;;;;;18.24;55.04;101374.19;5021027;28;20520;-51
2023/07/08 01:59:39;;;;;;;5.75;3.75;;;;;;;18.21;54.53;101367.28;5021822;28;20469;-54
2023/07/08 02:02:06;;;;;;;6.43;3.80;;;;;;;18.19;55.03;101366.56;5026165;28;20045;-56
2023/07/08 02:04:33;;;;;;;8.45;3.13;;;;;;;18.15;55.13;101361.59;5023578;28;20057;-53
2023/07/08 02:07:00;;;;;;;6.00;3.70;;;;;;;18.11;55.31;101368.97;5020336;28;20458;-55
2023/07/08 02:09:28;;;;;;;6.05;3.78;;;;;;;18.07;55.38;101359.53;5022185;28;20057;-55
2023/07/08 02:11:56;;;;;;;10.07;3.67;;;;;;;18.06;55.37;101368.50;5022032;28;20049;-49
2023/07/08 02:14:23;;;;;;;7.85;3.60;;;;;;;18.05;55.25;101366.78;5019796;28;20108;-52
2023/07/08 02:16:51;;;;;;;4.53;3.70;;;;;;;18.04;55.49;101366.91;5012487;28;20054;-53
2023/07/08 02:19:19;;;;;;;5.82;3.50;;;;;;;18.03;55.52;101371.41;5019993;28;20537;-55
2023/07/08 02:21:46;;;;;;;5.35;3.35;;;;;;;18.01;55.68;101362.66;5016487;28;20056;-54
2023/07/08 02:24:16;;;;;;;5.78;3.63;;;;;;;17.99;56.20;101364.59;5019744;28;20081;-56
2023/07/08 02:26:47;;;;;;;17.08;3.80;;;;;;;17.95;56.34;101361.34;5019916;28;20049;-53
2023/07/08 02:29:14;;;;;;;11.85;3.53;;;;;;;17.94;56.61;101364.13;5022360;28;20475;-55
2023/07/08 02:31:41;;;;;;;5.30;3.20;;;;;;;17.89;56.71;101363.63;5019210;28;20117;-55
2023/07/08 02:34:09;;;;;;;6.40;3.58;;;;;;;17.85;57.00;101356.84;5014869;28;20708;-52
2023/07/08 02:36:38;;;;;;;9.73;4.00;;;;;;;17.83;56.95;101366.75;5018993;28;20121;-56
2023/07/08 02:39:05;;;;;;;7.57;3.85;;;;;;;17.79;57.37;101366.19;5020636;28;20128;-55
2023/07/08 02:41:33;;;;;;;8.02;4.13;;;;;;;17.76;57.34;101362.91;5017780;28;20049;-54
2023/07/08 02:44:00;;;;;;;7.82;4.03;;;;;;;17.74;57.42;101356.81;5015621;28;20153;-51
2023/07/08 02:46:27;;;;;;;6.35;3.90;;;;;;;17.72;57.34;101355.09;5018288;28;20045;-55
2023/07/08 02:48:55;;;;;;;5.47;3.40;;;;;;;17.72;57.41;101349.78;5022296;28;20172;-58
2023/07/08 02:51:22;;;;;;;10.95;3.40;;;;;;;17.76;58.08;101360.22;5022170;28;20132;-52
2023/07/08 02:53:50;;;;;;;5.22;3.78;;;;;;;17.79;57.74;101352.00;5022293;28;20150;-49
2023/07/08 02:56:17;;;;;;;5.88;3.15;;;;;;;17.85;57.86;101359.50;5019881;28;20045;-54
2023/07/08 02:58:45;;;;;;;6.90;3.80;;;;;;;17.89;58.08;101360.97;5023134;28;20081;-51
2023/07/08 03:01:17;;;;;;;10.27;3.80;;;;;;;17.92;57.54;101364.25;5020897;28;20045;-50
2023/07/08 03:03:45;;;;;;;7.15;3.50;;;;;;;17.94;57.69;101361.47;5023092;28;20136;-52
2023/07/08 03:14:51;;;;;;;6.25;3.30;;;;;;;18.05;56.31;101358.78;5011053;28;20167;-56
2023/07/08 03:17:19;;;;;;;6.18;3.40;;;;;;;18.08;56.06;101357.72;5013332;28;20608;-54
2023/07/08 03:23:03;;;;;;;13.13;3.72;;;;;;;18.13;55.31;101348.38;5018954;28;20058;-53
2023/07/08 03:25:31;;;;;;;8.00;3.25;;;;;;;18.15;54.23;101353.59;5017283;28;20112;-54
2023/07/08 03:27:59;;;;;;;4.18;3.30;;;;;;;18.14;53.99;101350.06;5019033;28;20120;-50
2023/07/08 03:30:26;;;;;;;4.40;2.80;;;;;;;18.15;53.63;101357.13;5022919;28;20054;-53
2023/07/08 03:32:54;;;;;;;6.85;2.80;;;;;;;18.17;53.60;101352.50;5019202;28;20132;-52
2023/07/08 03:35:22;;;;;;;11.50;3.10;;;;;;;18.24;53.62;101355.53;5014405;28;20099;-54
2023/07/08 03:37:49;;;;;;;7.40;3.30;;;;;;;18.28;53.38;101354.31;5010799;28;20115;-53
2023/07/08 03:40:17;;;;;;;4.40;3.00;;;;;;;18.32;53.42;101346.91;5020162;28;20065;-51
2023/07/08 03:42:44;;;;;;;4.47;3.00;;;;;;;18.34;53.58;101345.00;5011832;28;20149;-53
2023/07/08 03:45:11;;;;;;;7.43;3.33;;;;;;;18.39;53.14;101346.31;5018878;28;20437;-55
2023/07/08 03:47:38;;;;;;;6.40;3.25;;;;;;;18.41;53.22;101344.34;5023681;28;20495;-52
2023/07/08 03:50:09;;;;;;;5.38;2.97;;;;;;;18.42;53.65;101347.88;5024057;28;20053;-53
2023/07/08 03:52:36;;;;;;;8.35;3.97;;;;;;;18.44;54.05;101344.13;5019922;28;20146;-57
2023/07/08 03:55:05;;;;;;;5.18;3.58;;;;;;;18.45;54.05;101344.94;5021129;28;20141;-51
2023/07/08 03:57:33;;;;;;;5.57;3.13;;;;;;;18.45;54.13;101344.94;5021134;28;20597;-56
2023/07/08 04:00:00;;;;;;;8.68;3.85;;;;;;;18.46;54.44;101350.19;5037563;28;20120;-50
2023/07/08 04:02:27;;;;;;;8.50;3.60;;;;;;;18.49;54.51;101351.75;5015626;28;20083;-53
2023/07/08 04:04:55;;;;;;;6.32;3.30;;;;;;;18.50;54.89;101348.09;5021007;28;20055;-55
2023/07/08 04:07:22;;;;;;;5.93;3.10;;;;;;;18.51;54.96;101355.16;5020411;28;20077;-53
2023/07/08 04:09:50;;;;;;;8.13;4.30;;;;;;;18.53;54.97;101357.69;5021555;28;20136;-50
2023/07/08 04:12:17;;;;;;;9.48;3.67;;;;;;;18.56;54.90;101354.78;5024500;28;20144;-54
2023/07/08 04:14:45;;;;;;;5.75;3.35;;;;;;;18.58;55.09;101356.31;5019619;28;20085;-56
2023/07/08 04:17:14;;;;;;;10.45;4.18;;;;;;;18.61;54.89;101350.75;5020161;28;20057;-48
2023/07/08 04:19:43;;;;;;;8.02;3.67;;;;;;;18.65;54.83;101349.53;5020261;28;20494;-49
2023/07/08 04:22:11;;;;;;;7.35;4.05;;;;;;;18.68;55.01;101351.09;5020159;28;20052;-52
2023/07/08 04:24:38;;;;;;;6.57;3.63;;;;;;;18.71;54.83;101350.88;5019376;28;20050;-50
2023/07/08 04:27:12;;;;;;;7.57;4.18;;;;;;;18.75;55.15;101363.00;5016223;28;20140;-54
2023/07/08 04:29:40;;;;;;;9.15;3.78;;;;;;;18.75;55.07;101363.00;5022825;28;20081;-50
2023/07/08 04:32:08;;;;;;;6.75;3.67;;;;;;;18.78;54.83;101360.09;5020089;28;20048;-54
2023/07/08 04:34:35;;;;;;;8.68;3.72;;;;;;;18.82;54.93;101356.19;5022498;28;20061;-50
2023/07/08 04:37:04;;;;;;;5.78;4.07;;;;;;;18.85;54.94;101352.41;5020739;28;20081;-51
2023/07/08 04:39:31;;;;;;;6.72;3.78;;;;;;;18.84;54.69;101351.56;5019677;28;20137;-53
2023/07/08 04:41:59;;;;;;;6.25;3.33;;;;;;;18.87;54.60;101346.00;5033495;28;20057;-51
2023/07/08 04:44:27;;;;;;;8.00;3.88;;;;;;;18.92;54.72;101354.47;5021271;28;20115;-53
2023/07/08 04:46:56;;;;;;;6.28;3.50;;;;;;;18.96;54.58;101355.91;5020197;28;20124;-54
2023/07/08 04:49:24;;;;;;;8.55;3.58;;;;;;;19.00;54.57;101353.81;5021110;28;20051;-54
2023/07/08 04:51:54;;;;;;;5.85;3.47;;;;;;;19.06;54.60;101361.31;5018252;28;20045;-49
2023/07/08 04:54:21;;;;;;;7.03;3.40;;;;;;;19.10;54.46;101352.09;5012359;28;20579;-58
2023/07/08 04:56:49;;;;;;;7.57;4.05;;;;;;;19.17;54.44;101358.59;5019930;28;20054;-53
2023/07/08 04:59:19;;;;;;;6.50;4.03;;;;;;;19.24;54.33;101356.28;5018392;28;20652;-54
2023/07/08 05:01:46;;;;;;;5.55;3.83;;;;;;;19.30;54.07;101354.91;5023413;28;20144;-54
2023/07/08 05:04:18;;;;;;;8.40;3.90;;;;;;;19.35;53.92;101358.03;5020102;28;20132;-54
2023/07/08 05:06:46;;;;;;;5.60;3.65;;;;;;;19.37;54.21;101356.09;5018218;28;20100;-54
2023/07/08 05:09:13;;;;;;;6.55;3.92;;;;;;;19.38;54.00;101361.28;5019948;28;20163;-55
2023/07/08 05:11:44;;;;;;;4.05;3.38;;;;;;;19.40;54.17;101364.66;5021067;28;20494;-50
2023/07/08 05:14:12;;;;;;;5.10;3.35;;;;;;;19.42;54.32;101359.22;5021388;28;20054;-54
2023/07/08 05:16:40;;;;;;;5.22;3.28;;;;;;;19.46;54.30;101361.50;5021699;28;20049;-53
2023/07/08 05:19:08;;;;;;;4.78;3.28;;;;;;;19.52;54.18;101357.44;5018046;28;20050;-55
2023/07/08 05:21:35;;;;;;;6.35;4.38;;;;;;;19.57;53.99;101360.56;5014513;28;20066;-54
2023/07/08 05:24:04;;;;;;;7.22;4.25;;;;;;;19.63;53.87;101357.44;5020398;28;20129;-53
2023/07/08 05:26:32;;;;;;;4.47;3.17;;;;;;;19.68;53.65;101355.22;5023028;28;20132;-52
2023/07/08 05:28:59;;;;;;;5.75;2.83;;;;;;;19.76;53.33;101357.19;5020361;28;20116;-49
2023/07/08 05:31:27;;;;;;;8.55;3.42;;;;;;;19.82;53.44;101362.03;5024314;28;20057;-50
2023/07/08 05:34:13;;;;;;;6.15;4.05;;;;;;;19.87;53.83;101359.81;5021785;28;20045;-54
2023/07/08 05:36:41;;;;;;;6.40;3.55;;;;;;;19.88;54.02;101364.16;5021146;28;20120;-50
2023/07/08 05:39:08;;;;;;;5.18;2.83;;;;;;;19.96;53.79;101360.84;5020388;28;20146;-56
2023/07/08 05:41:35;;;;;;;6.68;3.50;;;;;;;20.06;53.38;101358.22;5017191;28;20152;-53
2023/07/08 05:44:05;;;;;;;8.07;3.47;;;;;;;20.15;53.30;101357.41;5019103;28;20088;-56
2023/07/08 05:46:32;;;;;;;5.18;3.83;;;;;;;20.24;53.07;101354.75;5014002;28;20071;-58
2023/07/08 05:49:00;;;;;;;5.60;3.45;;;;;;;20.33;52.72;101357.59;5018885;28;20665;-54
2023/07/08 05:51:28;;;;;;;4.00;3.00;;;;;;;20.43;52.66;101363.81;5017082;28;20095;-48
2023/07/08 05:53:55;;;;;;;5.43;3.22;;;;;;;20.53;52.38;101362.03;5016767;28;20413;-55
2023/07/08 05:56:22;;;;;;;6.45;3.20;;;;;;;20.61;51.51;101364.88;5020690;28;20060;-58
2023/07/08 05:58:49;;;;;;;4.88;3.35;;;;;;;20.71;51.65;101367.56;5018643;28;20149;-52
2023/07/08 06:01:17;;;;;;;5.60;3.08;;;;;;;20.81;51.34;101364.94;5021119;28;20691;-55
2023/07/08 06:03:44;;;;;;;4.53;3.20;;;;;;;20.86;50.37;101370.72;5016749;28;20126;-48
2023/07/08 06:06:12;;;;;;;7.75;3.45;;;;;;;20.94;50.46;101374.41;5015301;28;20057;-58
2023/07/08 06:08:39;;;;;;;6.28;3.00;;;;;;;21.06;50.44;101383.13;5018926;28;20649;-50
2023/07/08 06:11:06;;;;;;;4.78;2.70;;;;;;;21.17;49.48;101377.66;5019089;28;20058;-53
2023/07/08 06:13:34;;;;;;;3.95;2.75;;;;;;;21.28;49.36;101376.66;5017527;28;20053;-53
2023/07/08 06:16:01;;;;;;;7.32;3.15;;;;;;;21.37;48.92;101377.66;5018723;28;20128;-57
2023/07/08 06:18:28;;;;;;;4.28;3.03;;;;;;;21.47;48.77;101383.84;5021111;28;20444;-55
2023/07/08 06:20:57;;;;;;;5.45;3.50;;;;;;;21.59;48.17;101387.22;5018286;28;20085;-56
2023/07/08 06:23:25;;;;;;;5.78;3.08;;;;;;;21.69;48.09;101386.22;5017012;28;20114;-54
2023/07/08 06:25:52;;;;;;;4.63;3.05;;;;;;;21.78;47.72;101383.66;5017835;28;20318;-55
2023/07/08 06:28:20;;;;;;;6.00;3.15;;;;;;;21.88;47.46;101384.47;5015798;28;20061;-57
2023/07/08 06:30:48;;;;;;;6.82;3.90;;;;;;;21.95;47.16;101388.28;5022902;28;20510;-52
2023/07/08 06:33:15;;;;;;;4.78;3.00;;;;;;;22.04;47.01;101389.25;5020284;28;20049;-54
2023/07/08 06:35:43;;;;;;;3.83;3.10;;;;;;;22.15;46.69;101389.91;5017438;28;20076;-52
2023/07/08 06:38:10;;;;;;;4.85;3.13;;;;;;;22.25;46.25;101392.59;5012897;28;20108;-54
2023/07/08 06:40:37;;;;;;;4.85;2.78;;;;;;;22.37;45.95;101393.22;5017525;28;20045;-60
2023/07/08 06:43:05;;;;;;;6.22;3.30;;;;;;;22.48;44.97;101383.16;5022038;28;20049;-57
2023/07/08 06:45:32;;;;;;;8.93;3.75;;;;;;;22.61;44.71;101390.84;5020919;28;20076;-52
2023/07/08 06:48:00;;;;;;;3.30;2.55;;;;;;;22.73;44.75;101378.03;5014887;28;20220;-54
2023/07/08 06:50:27;;;;;;;5.72;3.08;;;;;;;22.87;44.65;101379.38;5020579;28;20100;-54
2023/07/08 06:52:54;;;;;;;4.43;3.13;;;;;;;22.97;44.14;101380.19;5020526;28;20184;-54
2023/07/08 06:55:21;;;;;;;7.40;2.58;;;;;;;23.11;44.13;101384.19;5015695;28;20096;-56
2023/07/08 06:57:49;;;;;;;5.53;2.97;;;;;;;23.24;44.20;101384.66;5022991;28;20064;-54
2023/07/08 07:00:17;;;;;;;5.25;3.50;;;;;;;23.32;44.02;101373.09;5014660;28;20068;-51
2023/07/08 07:02:44;;;;;;;5.55;2.90;;;;;;;23.45;43.73;101377.06;5020459;28;20056;-55
2023/07/08 07:05:11;;;;;;;3.58;2.72;;;;;;;23.59;43.75;101377.50;5015444;28;20068;-52
2023/07/08 07:07:39;;;;;;;3.22;2.85;;;;;;;23.70;43.50;101383.53;5021375;28;20076;-54
2023/07/08 07:10:07;;;;;;;6.63;3.22;;;;;;;23.83;43.33;101380.41;5021139;28;20061;-59
2023/07/08 07:12:35;;;;;;;4.75;2.30;;;;;;;23.92;43.22;101376.78;5022595;28;20065;-48
2023/07/08 07:15:03;;;;;;;7.03;3.10;;;;;;;24.04;43.07;101381.88;5021831;28;20053;-55
2023/07/08 07:17:31;;;;;;;4.93;2.88;;;;;;;24.12;42.76;101381.91;5019520;28;20069;-54
2023/07/08 07:19:59;;;;;;;5.15;3.25;;;;;;;24.19;42.81;101383.81;5023785;28;20050;-54
2023/07/08 07:22:27;;;;;;;3.85;2.75;;;;;;;24.33;42.51;101381.53;5036481;28;20065;-50
2023/07/08 07:24:54;;;;;;;4.65;2.65;;;;;;;24.45;42.38;101388.31;5026826;28;20417;-53
2023/07/08 07:27:21;;;;;;;5.13;3.63;;;;;;;24.56;42.49;101384.50;5026759;28;20064;-53
2023/07/08 07:29:50;;;;;;;6.45;3.30;;;;;;;24.65;42.20;101384.34;5019374;28;20129;-56
2023/07/08 07:32:19;;;;;;;4.22;2.65;;;;;;;24.74;41.89;101379.84;5021814;28;20058;-51
2023/07/08 07:34:47;;;;;;;10.13;2.85;;;;;;;24.86;41.72;101383.91;5023838;28;20581;-50
2023/07/08 07:37:16;;;;;;;6.72;2.90;;;;;;;24.91;41.55;101381.56;5021235;28;20151;-54
2023/07/08 07:39:44;;;;;;;6.75;3.10;;;;;;;24.99;41.65;101384.28;5005206;28;20522;-52
2023/07/08 07:42:14;;;;;;;7.63;3.08;;;;;;;25.13;41.43;101382.81;5024253;28;20152;-51
2023/07/08 07:44:44;;;;;;;6.07;2.95;;;;;;;25.25;41.69;101376.06;5024292;28;20572;-54
2023/07/08 07:47:12;;;;;;;5.15;3.03;;;;;;;25.32;40.93;101384.31;5023035;28;20057;-54
2023/07/08 07:49:39;;;;;;;5.80;2.70;;;;;;;25.40;41.36;101376.25;5025428;28;20545;-51
2023/07/08 07:52:07;;;;;;;5.35;2.65;;;;;;;25.50;41.21;101378.75;5043701;28;20053;-52
2023/07/08 07:54:34;;;;;;;4.80;2.33;;;;;;;25.60;40.90;101383.97;5021233;28;20148;-50
2023/07/08 07:57:02;;;;;;;3.60;2.40;;;;;;;25.70;41.08;101377.38;5017058;28;20088;-51
2023/07/08 07:59:31;;;;;;;4.43;3.03;;;;;;;25.77;41.12;101384.84;5027379;28;20060;-55
2023/07/08 08:02:03;;;;;;;8.35;3.20;;;;;;;25.81;41.25;101378.94;5017963;28;20046;-55
2023/07/08 08:04:39;;;;;;;5.50;3.08;;;;;;;25.91;40.65;101370.63;5025738;28;20355;-56
2023/07/08 08:07:07;;;;;;;8.70;2.80;;;;;;;26.05;41.25;101378.00;5025802;28;20196;-53
2023/07/08 08:09:34;;;;;;;5.85;3.22;;;;;;;26.14;40.62;101378.81;5024218;28;20042;-55
2023/07/08 08:12:07;;;;;;;4.57;2.92;;;;;;;26.25;40.49;101379.31;5040883;28;20069;-52
2023/07/08 08:14:34;;;;;;;4.43;2.85;;;;;;;26.40;40.27;101381.25;5016809;28;20692;-57
2023/07/08 08:17:02;;;;;;;7.53;3.22;;;;;;;26.51;39.92;101387.13;5014351;28;20069;-55
2023/07/08 08:19:31;;;;;;;8.98;3.80;;;;;;;26.59;40.57;101386.25;5021620;28;20476;-53
2023/07/08 08:21:58;;;;;;;15.32;5.65;;;;;;;26.72;41.03;101388.38;5012176;28;20068;-54
2023/07/08 08:24:25;;;;;;;15.25;4.97;;;;;;;26.79;41.07;101389.34;5018379;28;20046;-55
2023/07/08 08:26:54;;;;;;;6.57;3.15;;;;;;;26.90;40.21;101388.94;5018844;28;20053;-54
2023/07/08 08:29:21;;;;;;;13.70;4.60;;;;;;;26.92;40.60;101381.50;5019537;28;20536;-56
2023/07/08 08:31:50;;;;;;;8.48;3.08;;;;;;;27.03;40.12;101391.06;5020738;28;20088;-53
2023/07/08 08:34:17;;;;;;;4.75;3.25;;;;;;;27.14;39.56;101390.66;5016511;28;21007;-54
2023/07/08 08:36:45;;;;;;;5.35;3.38;;;;;;;27.18;39.38;101383.03;5014506;28;20087;-56
2023/07/08 08:39:13;;;;;;;5.38;2.75;;;;;;;27.27;39.48;101390.91;5014724;28;20050;-50
2023/07/08 08:41:41;;;;;;;7.25;3.53;;;;;;;27.35;39.78;101394.56;5017945;28;20084;-58
2023/07/08 08:44:25;;;;;;;3.47;2.60;;;;;;;27.46;40.11;101397.66;5026192;28;20053;-55
2023/07/08 08:46:58;;;;;;;7.50;3.17;;;;;;;27.59;39.28;101391.63;5018685;28;20111;-56
2023/07/08 08:49:30;;;;;;;5.63;2.85;;;;;;;27.69;38.57;101391.38;5013547;28;20050;-50
2023/07/08 08:51:59;;;;;;;4.25;2.88;;;;;;;27.72;37.11;101389.19;5015841;28;20087;-53
2023/07/08 08:54:26;;;;;;;4.70;2.50;;;;;;;27.75;37.30;101388.81;5020437;28;20083;-57
2023/07/08 08:57:25;;;;;;;3.90;3.15;;;;;;;27.89;37.11;101383.59;5021084;28;20050;-56
2023/07/08 08:59:55;;;;;;;3.70;2.40;;;;;;;28.01;37.27;101382.97;4985553;28;20076;-54
2023/07/08 09:02:57;;;;;;;5.82;2.90;;;;;;;28.11;37.50;101390.81;5018648;28;20642;-52
2023/07/08 09:05:25;;;;;;;7.40;2.65;;;;;;;28.25;37.74;101389.13;4983108;28;20054;-53
2023/07/08 09:08:06;;;;;;;5.78;2.78;;;;;;;28.36;36.39;101390.53;5015279;28;20109;-52
2023/07/08 09:10:47;;;;;;;3.17;2.72;;;;;;;28.44;36.46;101395.84;5018543;28;20118;-55
2023/07/08 09:13:44;;;;;;;4.53;2.90;;;;;;;28.44;34.92;101388.56;5015588;28;20136;-54
2023/07/08 09:16:25;;;;;;;3.97;2.65;;;;;;;28.49;35.03;101385.28;5007019;28;20046;-57
2023/07/08 09:19:26;;;;;;;5.68;2.72;;;;;;;28.60;35.03;101383.97;5021006;28;20049;-57
2023/07/08 09:22:00;;;;;;;4.60;2.67;;;;;;;28.61;33.52;101388.34;4966677;28;20137;-57
2023/07/08 09:24:40;;;;;;;3.22;1.95;;;;;;;28.65;33.19;101378.81;5014451;28;20532;-57
2023/07/08 09:27:08;;;;;;;6.82;2.80;;;;;;;28.81;33.38;101391.28;5019921;28;20050;-57
2023/07/08 09:29:35;;;;;;;4.28;2.47;;;;;;;28.93;33.34;101384.31;5017950;28;20050;-55
2023/07/08 09:32:22;;;;;;;5.50;2.15;;;;;;;29.01;32.76;101385.06;5020413;28;20144;-56
2023/07/08 09:34:52;;;;;;;2.30;2.10;;;;;;;29.11;31.96;101383.91;5020158;28;20068;-52
2023/07/08 09:37:33;;;;;;;5.00;1.92;;;;;;;29.19;30.94;101373.78;5014481;28;20168;-57
2023/07/08 09:40:25;;;;;;;6.43;2.60;;;;;;;29.23;29.09;101374.22;5017069;28;20159;-57
2023/07/08 09:42:58;;;;;;;5.65;2.15;;;;;;;29.29;29.82;101376.16;5025936;28;20064;-57
2023/07/08 09:45:26;;;;;;;4.15;2.08;;;;;;;29.38;28.22;101382.28;5021034;28;20088;-54
2023/07/08 09:47:55;;;;;;;5.43;2.00;;;;;;;29.43;27.64;101379.81;5015644;28;20124;-55
2023/07/08 09:50:25;;;;;;;5.22;2.97;;;;;;;29.49;28.88;101377.13;5018014;28;20390;-55
2023/07/08 09:52:57;;;;;;;2.45;1.92;;;;;;;29.63;28.33;101378.13;5016416;28;20045;-57
2023/07/08 09:55:25;;;;;;;3.90;2.42;;;;;;;29.76;27.49;101380.09;5016843;28;20061;-57
2023/07/08 09:57:53;;;;;;;2.67;1.83;;;;;;;29.79;28.15;101376.97;5011288;28;20125;-56
2023/07/08 10:00:33;;;;;;;2.65;2.05;;;;;;;29.94;28.09;101377.69;5014341;28;20045;-57
2023/07/08 10:03:29;;;;;;;3.38;2.10;;;;;;;30.09;28.55;101374.88;5014936;28;20092;-57
2023/07/08 10:06:00;;;;;;;4.07;2.35;;;;;;;30.22;27.36;101369.53;5006646;28;20490;-55
2023/07/08 10:08:35;;;;;;;5.40;2.17;;;;;;;30.40;27.69;101370.88;5016165;28;20148;-55
2023/07/08 10:11:09;;;;;;;4.72;2.47;;;;;;;30.52;27.45;101377.38;5016175;28;20048;-55
2023/07/08 10:13:48;;;;;;;6.28;2.38;;;;;;;30.63;27.50;101374.09;5019693;28;20137;-57
2023/07/08 10:16:34;;;;;;;2.78;2.30;;;;;;;30.88;26.74;101378.97;5018709;28;20144;-55
2023/07/08 10:19:09;;;;;;;3.33;2.30;;;;;;;30.99;26.27;101370.22;5009064;28;20129;-55
2023/07/08 10:21:50;;;;;;;3.72;2.30;;;;;;;31.06;25.73;101371.06;5010054;28;20067;-57
2023/07/08 10:24:52;;;;;;;2.60;2.20;;;;;;;31.18;25.34;101369.41;5018637;28;20045;-57
2023/07/08 10:27:49;;;;;;;3.20;2.40;;;;;;;31.22;24.80;101369.84;5017497;28;20049;-55
2023/07/08 10:30:23;;;;;;;4.45;2.30;;;;;;;31.35;25.30;101369.88;5016715;28;20144;-55
2023/07/08 10:32:56;;;;;;;4.63;2.40;;;;;;;31.50;25.66;101358.75;5010684;28;20075;-56
2023/07/08 10:35:26;;;;;;;4.15;2.42;;;;;;;31.63;25.99;101361.47;5016263;28;20050;-58
2023/07/08 10:38:18;;;;;;;3.80;2.35;;;;;;;31.80;25.28;101361.88;5018518;28;20136;-56
2023/07/08 10:40:48;;;;;;;3.85;2.40;;;;;;;31.93;24.46;101358.31;5016053;28;20062;-55
2023/07/08 10:43:37;;;;;;;9.00;2.65;;;;;;;32.07;25.37;101348.22;5016731;28;20062;-56
2023/07/08 10:46:19;;;;;;;5.22;2.70;;;;;;;32.23;25.46;101347.72;5017172;28;20057;-57
2023/07/08 10:48:56;;;;;;;3.67;2.38;;;;;;;32.41;25.05;101353.31;5015923;28;20107;-55
2023/07/08 10:51:40;;;;;;;5.35;2.60;;;;;;;32.53;24.59;101358.94;5018380;28;20088;-55
2023/07/08 10:54:16;;;;;;;4.32;2.65;;;;;;;32.70;25.12;101362.84;5021264;28;20046;-57
2023/07/08 10:56:53;;;;;;;5.45;2.50;;;;;;;32.84;24.76;101354.56;5015054;28;20062;-54
2023/07/08 11:00:02;;;;;;;3.70;2.67;;;;;;;33.00;25.14;101354.88;5023536;28;20818;-57
2023/07/08 11:03:03;;;;;;;6.72;2.72;;;;;;;33.12;25.08;101352.28;4981393;28;20050;-55
2023/07/08 11:05:43;;;;;;;3.25;2.55;;;;;;;33.21;23.74;101353.69;4975634;28;20069;-55
2023/07/08 11:08:19;;;;;;;2.88;2.60;;;;;;;33.22;23.07;101349.88;5013364;28;20136;-57
2023/07/08 11:11:01;;;;;;;7.85;3.17;;;;;;;33.27;22.89;101360.97;5021667;28;20137;-56
2023/07/08 11:13:48;;;;;;;7.45;2.67;;;;;;;33.25;22.79;101356.81;5024065;28;20099;-55
2023/07/08 11:16:27;;;;;;;3.42;2.65;;;;;;;33.26;22.58;101351.13;5021933;28;20136;-56
2023/07/08 11:19:02;;;;;;;4.53;2.95;;;;;;;33.33;22.64;101350.25;5007959;28;20061;-55
2023/07/08 11:21:32;;;;;;;4.38;2.63;;;;;;;33.39;23.49;101343.88;5016324;28;20050;-55
2023/07/08 11:24:23;;;;;;;3.42;2.40;;;;;;;33.47;22.92;101346.38;5021205;28;20498;-56
2023/07/08 11:26:54;;;;;;;4.38;2.50;;;;;;;33.61;22.97;101347.91;5017986;28;20080;-57
2023/07/08 11:29:38;;;;;;;5.43;2.97;;;;;;;33.65;22.13;101338.19;5024337;28;20132;-56
2023/07/08 11:32:06;;;;;;;3.20;2.90;;;;;;;33.74;23.10;101339.56;5018698;28;20153;-58
2023/07/08 11:34:34;;;;;;;4.75;2.72;;;;;;;33.81;22.45;101341.38;5023427;28;20069;-57
2023/07/08 11:37:02;;;;;;;5.95;2.83;;;;;;;33.72;21.45;101341.66;5040558;28;20048;-56
2023/07/08 11:39:47;;;;;;;4.72;2.92;;;;;;;33.65;21.40;101329.19;5021635;28;20136;-53
2023/07/08 11:42:17;;;;;;;3.95;3.10;;;;;;;33.55;20.73;101326.97;5023293;28;20049;-54
2023/07/08 11:44:52;;;;;;;4.13;2.53;;;;;;;33.36;21.21;101317.03;5015989;28;20057;-55
2023/07/08 11:47:45;;;;;;;6.15;2.80;;;;;;;33.46;22.05;101322.88;5018307;28;20053;-56
2023/07/08 11:50:29;;;;;;;2.80;2.50;;;;;;;33.58;21.38;101321.03;5015588;28;20141;-57
2023/07/08 11:53:07;;;;;;;4.00;2.83;;;;;;;33.57;21.53;101319.38;5017724;28;21452;-55
2023/07/08 11:55:43;;;;;;;3.08;2.70;;;;;;;33.77;22.14;101316.41;5026571;28;20504;-52